sensor_id;sensor_type;location;lat;lon;timestamp;noise_LAeq;noise_LA_min;noise_LA_max;noise_LA01;noise_LA95
71030;Laerm;63723;51.436;5.976;2023-12-04T00:00:01;53.74;51.85;55.59;;
71030;Laerm;63723;51.436;5.976;2023-12-04T00:00:11;54.06;52.80;55.38;;
71030;Laerm;63723;51.436;5.976;2023-12-04T00:00:22;53.98;52.55;58.07;;
71030;Laerm;63723;51.436;5.976;2023-12-04T00:00:32;53.94;52.47;55.88;;
71030;Laerm;63723;51.436;5.976;2023-12-04T00:00:42;54.01;52.93;55.35;;
71030;Laerm;63723;51.436;5.976;2023-12-04T00:00:53;54.04;52.83;55.71;;
71030;Laerm;63723;51.436;5.976;2023-12-04T00:01:03;54.04;52.58;55.37;;
71030;Laerm;63723;51.436;5.976;2023-12-04T00:01:14;54.07;52.60;55.34;;
71030;Laerm;63723;51.436;5.976;2023-12-04T00:01:24;54.08;52.56;55.52;;
71030;Laerm;63723;51.436;5.976;2023-12-04T00:01:42;54.03;52.33;55.28;;
71030;Laerm;63723;51.436;5.976;2023-12-04T00:01:52;53.99;52.61;55.27;;
71030;Laerm;63723;51.436;5.976;2023-12-04T00:02:02;53.95;52.72;55.28;;
71030;Laerm;63723;51.436;5.976;2023-12-04T00:02:13;54.00;52.66;55.32;;
71030;Laerm;63723;51.436;5.976;2023-12-04T00:02:23;54.04;52.64;55.32;;
71030;Laerm;63723;51.436;5.976;2023-12-04T00:02:33;53.99;52.49;55.43;;
71030;Laerm;63723;51.436;5.976;2023-12-04T00:02:44;54.01;52.65;55.50;;
71030;Laerm;63723;51.436;5.976;2023-12-04T00:02:54;54.26;52.61;56.64;;
71030;Laerm;63723;51.436;5.976;2023-12-04T00:03:04;54.17;52.79;55.46;;
71030;Laerm;63723;51.436;5.976;2023-12-04T00:03:14;54.22;53.04;55.40;;
71030;Laerm;63723;51.436;5.976;2023-12-04T00:03:25;54.22;52.95;55.52;;
71030;Laerm;63723;51.436;5.976;2023-12-04T00:03:35;54.17;52.83;55.62;;
71030;Laerm;63723;51.436;5.976;2023-12-04T00:03:45;54.09;52.62;55.61;;
71030;Laerm;63723;51.436;5.976;2023-12-04T00:03:55;54.18;52.59;55.46;;
71030;Laerm;63723;51.436;5.976;2023-12-04T00:04:06;54.17;52.88;55.59;;
71030;Laerm;63723;51.436;5.976;2023-12-04T00:04:16;54.23;52.94;55.70;;
71030;Laerm;63723;51.436;5.976;2023-12-04T00:04:26;54.28;52.82;55.39;;
71030;Laerm;63723;51.436;5.976;2023-12-04T00:04:36;54.25;52.83;55.45;;
71030;Laerm;63723;51.436;5.976;2023-12-04T00:04:47;54.19;52.49;55.58;;
71030;Laerm;63723;51.436;5.976;2023-12-04T00:04:57;54.08;52.62;55.39;;
71030;Laerm;63723;51.436;5.976;2023-12-04T00:05:07;54.06;52.77;55.26;;
71030;Laerm;63723;51.436;5.976;2023-12-04T00:05:18;53.94;52.56;55.29;;
71030;Laerm;63723;51.436;5.976;2023-12-04T00:05:28;54.03;52.83;55.28;;
71030;Laerm;63723;51.436;5.976;2023-12-04T00:05:38;54.03;52.97;55.39;;
71030;Laerm;63723;51.436;5.976;2023-12-04T00:05:51;54.04;52.72;55.36;;
71030;Laerm;63723;51.436;5.976;2023-12-04T00:06:02;54.08;52.78;55.23;;
71030;Laerm;63723;51.436;5.976;2023-12-04T00:06:12;54.14;52.90;55.33;;
71030;Laerm;63723;51.436;5.976;2023-12-04T00:06:23;54.02;52.35;55.28;;
71030;Laerm;63723;51.436;5.976;2023-12-04T00:06:33;54.09;52.84;55.55;;
71030;Laerm;63723;51.436;5.976;2023-12-04T00:06:43;54.06;52.90;55.42;;
71030;Laerm;63723;51.436;5.976;2023-12-04T00:06:54;54.11;52.55;58.70;;
71030;Laerm;63723;51.436;5.976;2023-12-04T00:07:04;54.05;52.82;55.11;;
71030;Laerm;63723;51.436;5.976;2023-12-04T00:07:14;54.04;52.92;55.25;;
71030;Laerm;63723;51.436;5.976;2023-12-04T00:07:24;53.98;52.82;55.23;;
71030;Laerm;63723;51.436;5.976;2023-12-04T00:07:35;54.07;52.84;55.40;;
71030;Laerm;63723;51.436;5.976;2023-12-04T00:07:45;54.00;52.84;55.10;;
71030;Laerm;63723;51.436;5.976;2023-12-04T00:07:55;54.01;52.80;55.45;;
71030;Laerm;63723;51.436;5.976;2023-12-04T00:08:06;54.01;52.43;55.35;;
71030;Laerm;63723;51.436;5.976;2023-12-04T00:08:16;54.09;52.41;56.90;;
71030;Laerm;63723;51.436;5.976;2023-12-04T00:08:26;54.06;52.91;55.21;;
71030;Laerm;63723;51.436;5.976;2023-12-04T00:08:36;53.94;52.67;55.48;;
71030;Laerm;63723;51.436;5.976;2023-12-04T00:08:47;53.97;52.70;55.28;;
71030;Laerm;63723;51.436;5.976;2023-12-04T00:08:58;54.11;52.65;55.40;;
71030;Laerm;63723;51.436;5.976;2023-12-04T00:09:08;54.08;52.41;55.62;;
71030;Laerm;63723;51.436;5.976;2023-12-04T00:09:18;54.06;52.77;55.21;;
71030;Laerm;63723;51.436;5.976;2023-12-04T00:09:29;54.09;52.80;55.21;;
71030;Laerm;63723;51.436;5.976;2023-12-04T00:09:40;53.99;52.86;55.37;;
71030;Laerm;63723;51.436;5.976;2023-12-04T00:09:50;53.99;52.53;55.14;;
71030;Laerm;63723;51.436;5.976;2023-12-04T00:10:00;53.98;52.66;55.51;;
71030;Laerm;63723;51.436;5.976;2023-12-04T00:10:13;54.00;52.55;55.42;;
71030;Laerm;63723;51.436;5.976;2023-12-04T00:10:24;54.00;52.31;55.25;;
71030;Laerm;63723;51.436;5.976;2023-12-04T00:10:34;54.02;52.33;55.41;;
71030;Laerm;63723;51.436;5.976;2023-12-04T00:10:44;53.95;52.80;55.16;;
71030;Laerm;63723;51.436;5.976;2023-12-04T00:10:55;53.91;52.76;55.49;;
71030;Laerm;63723;51.436;5.976;2023-12-04T00:11:06;53.97;52.51;55.09;;
71030;Laerm;63723;51.436;5.976;2023-12-04T00:11:16;53.97;52.14;55.02;;
71030;Laerm;63723;51.436;5.976;2023-12-04T00:11:26;53.80;52.62;55.43;;
71030;Laerm;63723;51.436;5.976;2023-12-04T00:11:36;53.80;52.49;57.76;;
71030;Laerm;63723;51.436;5.976;2023-12-04T00:11:47;53.89;52.64;55.12;;
71030;Laerm;63723;51.436;5.976;2023-12-04T00:11:57;53.86;52.59;56.25;;
71030;Laerm;63723;51.436;5.976;2023-12-04T00:12:07;53.30;52.16;54.85;;
71030;Laerm;63723;51.436;5.976;2023-12-04T00:12:18;53.91;52.55;55.48;;
71030;Laerm;63723;51.436;5.976;2023-12-04T00:12:28;54.08;52.71;55.56;;
71030;Laerm;63723;51.436;5.976;2023-12-04T00:12:38;54.23;52.71;55.34;;
71030;Laerm;63723;51.436;5.976;2023-12-04T00:12:49;54.28;53.14;55.34;;
71030;Laerm;63723;51.436;5.976;2023-12-04T00:12:59;54.19;52.91;55.34;;
71030;Laerm;63723;51.436;5.976;2023-12-04T00:13:09;54.24;52.52;55.40;;
71030;Laerm;63723;51.436;5.976;2023-12-04T00:13:19;54.19;52.98;55.41;;
71030;Laerm;63723;51.436;5.976;2023-12-04T00:13:30;54.13;52.81;55.28;;
71030;Laerm;63723;51.436;5.976;2023-12-04T00:13:40;54.20;52.90;55.36;;
71030;Laerm;63723;51.436;5.976;2023-12-04T00:13:50;54.21;52.81;55.70;;
71030;Laerm;63723;51.436;5.976;2023-12-04T00:14:01;54.20;52.97;55.76;;
71030;Laerm;63723;51.436;5.976;2023-12-04T00:14:11;54.16;52.97;55.57;;
71030;Laerm;63723;51.436;5.976;2023-12-04T00:14:21;54.06;52.79;55.47;;
71030;Laerm;63723;51.436;5.976;2023-12-04T00:14:31;54.04;52.55;55.21;;
71030;Laerm;63723;51.436;5.976;2023-12-04T00:14:42;54.23;52.76;55.48;;
71030;Laerm;63723;51.436;5.976;2023-12-04T00:14:52;54.29;53.18;55.60;;
71030;Laerm;63723;51.436;5.976;2023-12-04T00:15:02;54.31;52.92;55.55;;
71030;Laerm;63723;51.436;5.976;2023-12-04T00:15:12;54.16;52.68;55.23;;
71030;Laerm;63723;51.436;5.976;2023-12-04T00:15:23;54.23;52.77;56.03;;
71030;Laerm;63723;51.436;5.976;2023-12-04T00:15:33;54.26;52.77;55.59;;
71030;Laerm;63723;51.436;5.976;2023-12-04T00:15:43;54.46;53.05;55.92;;
71030;Laerm;63723;51.436;5.976;2023-12-04T00:15:54;54.33;52.92;55.59;;
71030;Laerm;63723;51.436;5.976;2023-12-04T00:16:04;54.20;53.09;55.61;;
71030;Laerm;63723;51.436;5.976;2023-12-04T00:16:16;54.16;52.44;55.69;;
71030;Laerm;63723;51.436;5.976;2023-12-04T00:16:26;54.24;52.88;55.37;;
71030;Laerm;63723;51.436;5.976;2023-12-04T00:16:36;54.23;52.84;55.60;;
71030;Laerm;63723;51.436;5.976;2023-12-04T00:16:47;54.20;52.55;55.62;;
71030;Laerm;63723;51.436;5.976;2023-12-04T00:16:57;54.18;52.91;55.40;;
71030;Laerm;63723;51.436;5.976;2023-12-04T00:17:07;54.13;52.74;55.44;;
71030;Laerm;63723;51.436;5.976;2023-12-04T00:17:17;54.23;52.89;55.66;;
71030;Laerm;63723;51.436;5.976;2023-12-04T00:17:28;54.18;53.10;55.68;;
71030;Laerm;63723;51.436;5.976;2023-12-04T00:17:38;54.15;52.87;55.33;;
71030;Laerm;63723;51.436;5.976;2023-12-04T00:17:49;54.42;53.14;55.59;;
71030;Laerm;63723;51.436;5.976;2023-12-04T00:18:00;54.32;53.18;55.39;;
71030;Laerm;63723;51.436;5.976;2023-12-04T00:18:10;54.26;52.64;56.38;;
71030;Laerm;63723;51.436;5.976;2023-12-04T00:18:20;54.29;52.99;55.74;;
71030;Laerm;63723;51.436;5.976;2023-12-04T00:18:30;54.34;52.97;55.51;;
71030;Laerm;63723;51.436;5.976;2023-12-04T00:18:41;54.24;52.91;55.55;;
71030;Laerm;63723;51.436;5.976;2023-12-04T00:18:51;54.08;52.73;55.42;;
71030;Laerm;63723;51.436;5.976;2023-12-04T00:19:01;53.97;52.68;55.44;;
71030;Laerm;63723;51.436;5.976;2023-12-04T00:19:11;54.27;53.01;55.75;;
71030;Laerm;63723;51.436;5.976;2023-12-04T00:19:22;54.30;52.59;55.61;;
71030;Laerm;63723;51.436;5.976;2023-12-04T00:19:32;54.24;53.11;55.52;;
71030;Laerm;63723;51.436;5.976;2023-12-04T00:19:42;54.21;52.73;55.54;;
71030;Laerm;63723;51.436;5.976;2023-12-04T00:19:53;54.32;53.00;55.62;;
71030;Laerm;63723;51.436;5.976;2023-12-04T00:20:03;54.27;52.86;55.70;;
71030;Laerm;63723;51.436;5.976;2023-12-04T00:20:13;54.25;53.10;55.86;;
71030;Laerm;63723;51.436;5.976;2023-12-04T00:20:24;54.23;52.84;55.85;;
71030;Laerm;63723;51.436;5.976;2023-12-04T00:20:34;54.22;53.11;55.55;;
71030;Laerm;63723;51.436;5.976;2023-12-04T00:20:44;54.20;52.83;55.33;;
71030;Laerm;63723;51.436;5.976;2023-12-04T00:20:54;54.25;52.70;56.13;;
71030;Laerm;63723;51.436;5.976;2023-12-04T00:21:05;54.26;52.92;55.72;;
71030;Laerm;63723;51.436;5.976;2023-12-04T00:21:15;54.30;52.61;56.28;;
71030;Laerm;63723;51.436;5.976;2023-12-04T00:21:25;54.08;52.75;55.78;;
71030;Laerm;63723;51.436;5.976;2023-12-04T00:21:36;54.06;52.60;55.28;;
71030;Laerm;63723;51.436;5.976;2023-12-04T00:21:46;54.06;52.93;55.43;;
71030;Laerm;63723;51.436;5.976;2023-12-04T00:21:56;54.27;52.90;55.72;;
71030;Laerm;63723;51.436;5.976;2023-12-04T00:22:06;54.18;52.77;55.60;;
71030;Laerm;63723;51.436;5.976;2023-12-04T00:22:17;54.14;52.48;55.49;;
71030;Laerm;63723;51.436;5.976;2023-12-04T00:22:27;54.12;52.81;55.12;;
71030;Laerm;63723;51.436;5.976;2023-12-04T00:22:38;54.16;52.57;55.16;;
71030;Laerm;63723;51.436;5.976;2023-12-04T00:22:48;54.12;52.64;55.37;;
71030;Laerm;63723;51.436;5.976;2023-12-04T00:22:59;54.07;52.55;55.09;;
71030;Laerm;63723;51.436;5.976;2023-12-04T00:23:09;54.16;52.87;55.35;;
71030;Laerm;63723;51.436;5.976;2023-12-04T00:23:19;54.21;53.12;55.81;;
71030;Laerm;63723;51.436;5.976;2023-12-04T00:23:30;54.26;53.06;55.50;;
71030;Laerm;63723;51.436;5.976;2023-12-04T00:23:40;54.22;53.18;55.44;;
71030;Laerm;63723;51.436;5.976;2023-12-04T00:23:50;55.01;53.01;56.37;;
71030;Laerm;63723;51.436;5.976;2023-12-04T00:24:00;54.35;53.28;56.10;;
71030;Laerm;63723;51.436;5.976;2023-12-04T00:24:11;54.36;52.76;55.48;;
71030;Laerm;63723;51.436;5.976;2023-12-04T00:24:21;54.36;53.06;55.90;;
71030;Laerm;63723;51.436;5.976;2023-12-04T00:24:31;54.20;52.97;55.41;;
71030;Laerm;63723;51.436;5.976;2023-12-04T00:24:42;53.83;52.54;55.24;;
71030;Laerm;63723;51.436;5.976;2023-12-04T00:24:52;53.75;52.55;54.82;;
71030;Laerm;63723;51.436;5.976;2023-12-04T00:25:03;53.68;52.30;54.92;;
71030;Laerm;63723;51.436;5.976;2023-12-04T00:25:13;53.82;52.73;54.81;;
71030;Laerm;63723;51.436;5.976;2023-12-04T00:25:23;53.94;52.47;55.10;;
71030;Laerm;63723;51.436;5.976;2023-12-04T00:25:33;53.88;52.57;55.18;;
71030;Laerm;63723;51.436;5.976;2023-12-04T00:25:44;53.83;52.55;55.30;;
71030;Laerm;63723;51.436;5.976;2023-12-04T00:25:54;53.84;52.63;54.94;;
71030;Laerm;63723;51.436;5.976;2023-12-04T00:26:05;53.80;52.40;55.02;;
71030;Laerm;63723;51.436;5.976;2023-12-04T00:26:15;53.69;52.06;55.06;;
71030;Laerm;63723;51.436;5.976;2023-12-04T00:26:26;53.81;52.52;55.24;;
71030;Laerm;63723;51.436;5.976;2023-12-04T00:26:36;54.19;52.52;55.64;;
71030;Laerm;63723;51.436;5.976;2023-12-04T00:26:46;54.54;53.41;55.93;;
71030;Laerm;63723;51.436;5.976;2023-12-04T00:26:56;54.58;53.49;56.12;;
71030;Laerm;63723;51.436;5.976;2023-12-04T00:27:06;54.56;53.46;55.73;;
71030;Laerm;63723;51.436;5.976;2023-12-04T00:27:17;54.54;53.47;56.07;;
71030;Laerm;63723;51.436;5.976;2023-12-04T00:27:27;54.55;53.07;55.76;;
71030;Laerm;63723;51.436;5.976;2023-12-04T00:27:37;54.55;53.34;56.08;;
71030;Laerm;63723;51.436;5.976;2023-12-04T00:27:48;54.19;52.73;55.73;;
71030;Laerm;63723;51.436;5.976;2023-12-04T00:27:58;53.94;52.67;55.28;;
71030;Laerm;63723;51.436;5.976;2023-12-04T00:28:08;53.84;52.49;55.02;;
71030;Laerm;63723;51.436;5.976;2023-12-04T00:28:18;53.62;52.25;55.27;;
71030;Laerm;63723;51.436;5.976;2023-12-04T00:28:29;53.49;52.43;54.89;;
71030;Laerm;63723;51.436;5.976;2023-12-04T00:28:39;53.80;52.62;54.92;;
71030;Laerm;63723;51.436;5.976;2023-12-04T00:28:49;53.77;52.35;55.12;;
71030;Laerm;63723;51.436;5.976;2023-12-04T00:28:59;53.84;52.52;55.67;;
71030;Laerm;63723;51.436;5.976;2023-12-04T00:29:10;53.89;52.55;55.53;;
71030;Laerm;63723;51.436;5.976;2023-12-04T00:29:20;54.00;52.59;55.19;;
71030;Laerm;63723;51.436;5.976;2023-12-04T00:29:30;53.94;52.57;55.38;;
71030;Laerm;63723;51.436;5.976;2023-12-04T00:29:41;53.98;52.69;55.13;;
71030;Laerm;63723;51.436;5.976;2023-12-04T00:29:51;54.07;52.72;55.36;;
71030;Laerm;63723;51.436;5.976;2023-12-04T00:30:01;54.02;52.69;55.58;;
71030;Laerm;63723;51.436;5.976;2023-12-04T00:30:13;53.98;52.70;55.51;;
71030;Laerm;63723;51.436;5.976;2023-12-04T00:30:24;54.09;52.87;55.45;;
71030;Laerm;63723;51.436;5.976;2023-12-04T00:30:34;54.04;52.87;55.44;;
71030;Laerm;63723;51.436;5.976;2023-12-04T00:30:44;54.05;52.82;55.21;;
71030;Laerm;63723;51.436;5.976;2023-12-04T00:30:55;53.98;52.67;55.81;;
71030;Laerm;63723;51.436;5.976;2023-12-04T00:31:05;53.97;52.89;55.20;;
71030;Laerm;63723;51.436;5.976;2023-12-04T00:31:15;54.01;52.65;55.40;;
71030;Laerm;63723;51.436;5.976;2023-12-04T00:31:26;54.04;52.72;55.45;;
71030;Laerm;63723;51.436;5.976;2023-12-04T00:31:36;54.04;52.76;55.84;;
71030;Laerm;63723;51.436;5.976;2023-12-04T00:31:46;54.05;52.77;55.23;;
71030;Laerm;63723;51.436;5.976;2023-12-04T00:31:56;54.05;52.57;55.41;;
71030;Laerm;63723;51.436;5.976;2023-12-04T00:32:07;54.07;52.58;55.43;;
71030;Laerm;63723;51.436;5.976;2023-12-04T00:32:17;54.08;52.78;57.28;;
71030;Laerm;63723;51.436;5.976;2023-12-04T00:32:27;54.07;52.83;55.76;;
71030;Laerm;63723;51.436;5.976;2023-12-04T00:32:37;54.01;52.62;55.24;;
71030;Laerm;63723;51.436;5.976;2023-12-04T00:32:48;54.02;52.71;55.30;;
71030;Laerm;63723;51.436;5.976;2023-12-04T00:32:58;54.06;52.52;55.25;;
71030;Laerm;63723;51.436;5.976;2023-12-04T00:33:08;54.03;52.62;55.89;;
71030;Laerm;63723;51.436;5.976;2023-12-04T00:33:18;54.14;52.77;55.46;;
71030;Laerm;63723;51.436;5.976;2023-12-04T00:33:29;54.13;52.88;55.36;;
71030;Laerm;63723;51.436;5.976;2023-12-04T00:33:39;54.00;52.76;55.59;;
71030;Laerm;63723;51.436;5.976;2023-12-04T00:33:49;54.12;52.76;55.86;;
71030;Laerm;63723;51.436;5.976;2023-12-04T00:34:00;54.03;52.84;55.49;;
71030;Laerm;63723;51.436;5.976;2023-12-04T00:34:10;54.12;52.75;55.61;;
71030;Laerm;63723;51.436;5.976;2023-12-04T00:34:22;54.33;52.98;55.78;;
71030;Laerm;63723;51.436;5.976;2023-12-04T00:34:32;54.54;52.89;56.13;;
71030;Laerm;63723;51.436;5.976;2023-12-04T00:34:42;54.68;53.44;56.11;;
71030;Laerm;63723;51.436;5.976;2023-12-04T00:34:53;54.62;53.22;59.97;;
71030;Laerm;63723;51.436;5.976;2023-12-04T00:35:03;54.54;53.06;56.39;;
71030;Laerm;63723;51.436;5.976;2023-12-04T00:35:13;54.49;52.74;56.02;;
71030;Laerm;63723;51.436;5.976;2023-12-04T00:35:24;54.50;52.98;56.06;;
71030;Laerm;63723;51.436;5.976;2023-12-04T00:35:34;54.43;53.21;55.81;;
71030;Laerm;63723;51.436;5.976;2023-12-04T00:35:44;54.52;53.00;56.41;;
71030;Laerm;63723;51.436;5.976;2023-12-04T00:35:54;54.42;53.23;55.78;;
71030;Laerm;63723;51.436;5.976;2023-12-04T00:36:05;54.34;53.04;55.63;;
71030;Laerm;63723;51.436;5.976;2023-12-04T00:36:15;53.84;52.58;55.41;;
71030;Laerm;63723;51.436;5.976;2023-12-04T00:36:25;54.32;52.94;55.71;;
71030;Laerm;63723;51.436;5.976;2023-12-04T00:36:35;54.24;52.94;55.65;;
71030;Laerm;63723;51.436;5.976;2023-12-04T00:36:46;54.48;53.07;56.32;;
71030;Laerm;63723;51.436;5.976;2023-12-04T00:36:56;54.48;52.89;56.04;;
71030;Laerm;63723;51.436;5.976;2023-12-04T00:37:06;54.30;52.93;55.73;;
71030;Laerm;63723;51.436;5.976;2023-12-04T00:37:17;54.25;52.71;55.65;;
71030;Laerm;63723;51.436;5.976;2023-12-04T00:37:27;54.36;53.00;56.19;;
71030;Laerm;63723;51.436;5.976;2023-12-04T00:37:38;54.37;53.17;55.56;;
71030;Laerm;63723;51.436;5.976;2023-12-04T00:37:48;54.16;52.89;55.40;;
71030;Laerm;63723;51.436;5.976;2023-12-04T00:37:58;54.21;52.63;55.64;;
71030;Laerm;63723;51.436;5.976;2023-12-04T00:38:09;54.11;52.67;55.56;;
71030;Laerm;63723;51.436;5.976;2023-12-04T00:38:19;54.03;52.83;55.52;;
71030;Laerm;63723;51.436;5.976;2023-12-04T00:38:29;54.12;52.57;55.37;;
71030;Laerm;63723;51.436;5.976;2023-12-04T00:38:39;54.23;52.64;55.59;;
71030;Laerm;63723;51.436;5.976;2023-12-04T00:38:50;54.25;52.92;55.62;;
71030;Laerm;63723;51.436;5.976;2023-12-04T00:39:00;54.23;52.95;55.62;;
71030;Laerm;63723;51.436;5.976;2023-12-04T00:39:10;54.20;52.80;55.53;;
71030;Laerm;63723;51.436;5.976;2023-12-04T00:39:21;54.26;52.92;55.58;;
71030;Laerm;63723;51.436;5.976;2023-12-04T00:39:31;54.22;52.74;55.55;;
71030;Laerm;63723;51.436;5.976;2023-12-04T00:39:41;54.21;52.85;55.47;;
71030;Laerm;63723;51.436;5.976;2023-12-04T00:39:51;54.20;52.93;55.51;;
71030;Laerm;63723;51.436;5.976;2023-12-04T00:40:02;54.00;52.78;55.21;;
71030;Laerm;63723;51.436;5.976;2023-12-04T00:40:12;53.95;52.73;55.16;;
71030;Laerm;63723;51.436;5.976;2023-12-04T00:40:22;53.89;52.43;55.39;;
71030;Laerm;63723;51.436;5.976;2023-12-04T00:40:33;54.10;52.71;55.43;;
71030;Laerm;63723;51.436;5.976;2023-12-04T00:40:43;54.22;53.09;55.62;;
71030;Laerm;63723;51.436;5.976;2023-12-04T00:40:53;54.75;53.19;56.80;;
71030;Laerm;63723;51.436;5.976;2023-12-04T00:41:04;54.23;53.03;55.56;;
71030;Laerm;63723;51.436;5.976;2023-12-04T00:41:14;54.13;52.62;55.91;;
71030;Laerm;63723;51.436;5.976;2023-12-04T00:41:24;54.11;52.42;55.25;;
71030;Laerm;63723;51.436;5.976;2023-12-04T00:41:35;54.17;52.91;55.75;;
71030;Laerm;63723;51.436;5.976;2023-12-04T00:41:45;54.13;52.67;55.38;;
71030;Laerm;63723;51.436;5.976;2023-12-04T00:41:55;54.22;52.71;56.37;;
71030;Laerm;63723;51.436;5.976;2023-12-04T00:42:05;54.15;52.93;55.42;;
71030;Laerm;63723;51.436;5.976;2023-12-04T00:42:16;54.23;53.00;55.81;;
71030;Laerm;63723;51.436;5.976;2023-12-04T00:42:26;54.24;52.58;56.05;;
71030;Laerm;63723;51.436;5.976;2023-12-04T00:42:36;54.25;52.91;55.92;;
71030;Laerm;63723;51.436;5.976;2023-12-04T00:42:46;54.22;52.95;55.46;;
71030;Laerm;63723;51.436;5.976;2023-12-04T00:42:57;54.23;52.89;55.50;;
71030;Laerm;63723;51.436;5.976;2023-12-04T00:43:07;54.17;52.73;56.10;;
71030;Laerm;63723;51.436;5.976;2023-12-04T00:43:17;54.16;52.79;55.75;;
71030;Laerm;63723;51.436;5.976;2023-12-04T00:43:27;54.09;52.73;55.37;;
71030;Laerm;63723;51.436;5.976;2023-12-04T00:43:38;54.21;52.66;55.73;;
71030;Laerm;63723;51.436;5.976;2023-12-04T00:43:48;54.22;52.75;55.88;;
71030;Laerm;63723;51.436;5.976;2023-12-04T00:43:58;54.18;52.65;55.56;;
71030;Laerm;63723;51.436;5.976;2023-12-04T00:44:09;54.20;52.79;55.81;;
71030;Laerm;63723;51.436;5.976;2023-12-04T00:44:19;54.21;52.38;56.16;;
71030;Laerm;63723;51.436;5.976;2023-12-04T00:44:29;54.19;52.66;55.37;;
71030;Laerm;63723;51.436;5.976;2023-12-04T00:44:39;54.08;52.07;55.82;;
71030;Laerm;63723;51.436;5.976;2023-12-04T00:44:49;53.98;52.35;55.56;;
71030;Laerm;63723;51.436;5.976;2023-12-04T00:45:00;53.99;52.03;55.64;;
71030;Laerm;63723;51.436;5.976;2023-12-04T00:45:10;53.97;52.43;55.94;;
71030;Laerm;63723;51.436;5.976;2023-12-04T00:45:20;54.06;52.74;55.37;;
71030;Laerm;63723;51.436;5.976;2023-12-04T00:45:31;54.01;52.54;56.84;;
71030;Laerm;63723;51.436;5.976;2023-12-04T00:45:41;54.06;51.97;55.79;;
71030;Laerm;63723;51.436;5.976;2023-12-04T00:45:51;54.12;52.61;55.94;;
71030;Laerm;63723;51.436;5.976;2023-12-04T00:46:01;54.04;52.76;55.40;;
71030;Laerm;63723;51.436;5.976;2023-12-04T00:46:12;54.02;52.52;55.75;;
71030;Laerm;63723;51.436;5.976;2023-12-04T00:46:22;54.55;52.62;56.87;;
71030;Laerm;63723;51.436;5.976;2023-12-04T00:46:32;54.18;52.72;56.04;;
71030;Laerm;63723;51.436;5.976;2023-12-04T00:46:42;54.16;52.53;56.29;;
71030;Laerm;63723;51.436;5.976;2023-12-04T00:46:53;54.30;52.51;56.61;;
71030;Laerm;63723;51.436;5.976;2023-12-04T00:47:03;54.36;52.76;58.38;;
71030;Laerm;63723;51.436;5.976;2023-12-04T00:47:13;54.51;52.98;56.11;;
71030;Laerm;63723;51.436;5.976;2023-12-04T00:47:23;54.45;53.21;55.71;;
71030;Laerm;63723;51.436;5.976;2023-12-04T00:47:34;54.51;53.23;56.10;;
71030;Laerm;63723;51.436;5.976;2023-12-04T00:47:44;54.49;53.41;56.03;;
71030;Laerm;63723;51.436;5.976;2023-12-04T00:47:54;54.58;52.83;56.37;;
71030;Laerm;63723;51.436;5.976;2023-12-04T00:48:04;54.28;52.73;56.23;;
71030;Laerm;63723;51.436;5.976;2023-12-04T00:48:15;54.44;53.00;55.60;;
71030;Laerm;63723;51.436;5.976;2023-12-04T00:48:25;54.34;53.30;55.87;;
71030;Laerm;63723;51.436;5.976;2023-12-04T00:48:35;54.27;53.14;56.88;;
71030;Laerm;63723;51.436;5.976;2023-12-04T00:48:45;54.38;53.06;56.31;;
71030;Laerm;63723;51.436;5.976;2023-12-04T00:48:56;54.48;52.87;55.58;;
71030;Laerm;63723;51.436;5.976;2023-12-04T00:49:06;54.47;53.21;56.29;;
71030;Laerm;63723;51.436;5.976;2023-12-04T00:49:16;53.75;52.22;56.24;;
71030;Laerm;63723;51.436;5.976;2023-12-04T00:49:27;53.53;52.08;56.01;;
71030;Laerm;63723;51.436;5.976;2023-12-04T00:49:37;54.62;52.63;56.66;;
71030;Laerm;63723;51.436;5.976;2023-12-04T00:49:47;54.55;53.22;55.67;;
71030;Laerm;63723;51.436;5.976;2023-12-04T00:49:57;54.25;52.97;55.56;;
71030;Laerm;63723;51.436;5.976;2023-12-04T00:50:08;54.28;53.13;55.39;;
71030;Laerm;63723;51.436;5.976;2023-12-04T00:50:18;54.24;53.08;55.57;;
71030;Laerm;63723;51.436;5.976;2023-12-04T00:50:28;54.40;53.13;56.15;;
71030;Laerm;63723;51.436;5.976;2023-12-04T00:50:39;54.36;53.38;55.84;;
71030;Laerm;63723;51.436;5.976;2023-12-04T00:50:50;54.39;53.33;56.45;;
71030;Laerm;63723;51.436;5.976;2023-12-04T00:51:01;54.46;52.84;55.90;;
71030;Laerm;63723;51.436;5.976;2023-12-04T00:51:11;54.60;53.01;56.47;;
71030;Laerm;63723;51.436;5.976;2023-12-04T00:51:21;54.55;53.44;55.90;;
71030;Laerm;63723;51.436;5.976;2023-12-04T00:51:38;54.66;53.35;55.92;;
71030;Laerm;63723;51.436;5.976;2023-12-04T00:51:48;54.62;53.40;56.55;;
71030;Laerm;63723;51.436;5.976;2023-12-04T00:51:59;54.49;53.32;55.91;;
71030;Laerm;63723;51.436;5.976;2023-12-04T00:52:09;54.09;52.50;57.81;;
71030;Laerm;63723;51.436;5.976;2023-12-04T00:52:19;53.89;52.61;55.38;;
71030;Laerm;63723;51.436;5.976;2023-12-04T00:52:29;53.86;52.65;55.01;;
71030;Laerm;63723;51.436;5.976;2023-12-04T00:52:40;53.88;52.63;55.03;;
71030;Laerm;63723;51.436;5.976;2023-12-04T00:52:50;54.47;52.66;68.05;;
71030;Laerm;63723;51.436;5.976;2023-12-04T00:53:00;53.84;51.99;56.75;;
71030;Laerm;63723;51.436;5.976;2023-12-04T00:53:11;54.02;52.85;55.68;;
71030;Laerm;63723;51.436;5.976;2023-12-04T00:53:21;53.86;52.91;54.87;;
71030;Laerm;63723;51.436;5.976;2023-12-04T00:53:31;53.84;52.41;55.14;;
71030;Laerm;63723;51.436;5.976;2023-12-04T00:53:42;53.95;52.72;55.18;;
71030;Laerm;63723;51.436;5.976;2023-12-04T00:53:52;54.03;52.74;55.24;;
71030;Laerm;63723;51.436;5.976;2023-12-04T00:54:02;53.89;52.49;55.03;;
71030;Laerm;63723;51.436;5.976;2023-12-04T00:54:13;54.28;52.81;67.24;;
71030;Laerm;63723;51.436;5.976;2023-12-04T00:54:23;54.18;52.86;55.61;;
71030;Laerm;63723;51.436;5.976;2023-12-04T00:54:33;54.22;53.09;55.54;;
71030;Laerm;63723;51.436;5.976;2023-12-04T00:54:44;54.16;52.95;55.52;;
71030;Laerm;63723;51.436;5.976;2023-12-04T00:54:54;54.09;52.59;55.08;;
71030;Laerm;63723;51.436;5.976;2023-12-04T00:55:04;54.14;52.91;55.33;;
71030;Laerm;63723;51.436;5.976;2023-12-04T00:55:14;54.22;53.00;55.73;;
71030;Laerm;63723;51.436;5.976;2023-12-04T00:55:25;54.25;53.20;55.46;;
71030;Laerm;63723;51.436;5.976;2023-12-04T00:55:35;54.52;53.42;55.66;;
71030;Laerm;63723;51.436;5.976;2023-12-04T00:55:45;54.71;53.29;56.02;;
71030;Laerm;63723;51.436;5.976;2023-12-04T00:55:55;54.97;53.54;56.21;;
71030;Laerm;63723;51.436;5.976;2023-12-04T00:56:12;55.04;53.97;56.19;;
71030;Laerm;63723;51.436;5.976;2023-12-04T00:56:23;54.86;53.75;56.51;;
71030;Laerm;63723;51.436;5.976;2023-12-04T00:56:33;54.85;53.56;56.05;;
71030;Laerm;63723;51.436;5.976;2023-12-04T00:56:44;55.04;53.79;56.60;;
71030;Laerm;63723;51.436;5.976;2023-12-04T00:56:54;55.21;53.98;56.23;;
71030;Laerm;63723;51.436;5.976;2023-12-04T00:57:04;55.30;53.84;56.27;;
71030;Laerm;63723;51.436;5.976;2023-12-04T00:57:14;55.18;52.51;56.58;;
71030;Laerm;63723;51.436;5.976;2023-12-04T00:57:25;55.57;54.01;57.09;;
71030;Laerm;63723;51.436;5.976;2023-12-04T00:57:35;55.32;53.96;56.53;;
71030;Laerm;63723;51.436;5.976;2023-12-04T00:57:45;55.17;53.94;56.11;;
71030;Laerm;63723;51.436;5.976;2023-12-04T00:57:56;55.28;53.15;66.25;;
71030;Laerm;63723;51.436;5.976;2023-12-04T00:58:06;55.36;52.90;56.98;;